sensor_id;sensor_type;location;lat;lon;timestamp;pressure;altitude;pressure_sealevel;temperature;humidity
10135;BME280;5107;48.850;8.924;2023-05-21T00:00:09;96463.31;;;15.84;81.71
10135;BME280;5107;48.850;8.924;2023-05-21T00:02:36;96464.34;;;15.83;82.20
10135;BME280;5107;48.850;8.924;2023-05-21T00:05:01;96454.13;;;15.87;82.24
10135;BME280;5107;48.850;8.924;2023-05-21T00:07:27;96465.97;;;15.91;81.95
10135;BME280;5107;48.850;8.924;2023-05-21T00:09:52;96463.53;;;15.83;82.04
10135;BME280;5107;48.850;8.924;2023-05-21T00:12:18;96463.88;;;16.00;81.16
10135;BME280;5107;48.850;8.924;2023-05-21T00:14:43;96460.66;;;15.91;81.88
10135;BME280;5107;48.850;8.924;2023-05-21T00:17:08;96453.31;;;15.93;81.82
10135;BME280;5107;48.850;8.924;2023-05-21T00:19:34;96452.91;;;15.89;81.74
10135;BME280;5107;48.850;8.924;2023-05-21T00:22:00;96444.94;;;15.83;81.75
10135;BME280;5107;48.850;8.924;2023-05-21T00:24:28;96445.59;;;15.78;82.10
10135;BME280;5107;48.850;8.924;2023-05-21T00:26:53;96441.13;;;15.66;82.57
10135;BME280;5107;48.850;8.924;2023-05-21T00:29:19;96435.44;;;15.62;83.15
10135;BME280;5107;48.850;8.924;2023-05-21T00:31:44;96437.09;;;15.57;83.55
10135;BME280;5107;48.850;8.924;2023-05-21T00:34:12;96440.72;;;15.49;83.83
10135;BME280;5107;48.850;8.924;2023-05-21T00:36:37;96441.34;;;15.44;84.30
10135;BME280;5107;48.850;8.924;2023-05-21T00:39:04;96436.47;;;15.35;84.34
10135;BME280;5107;48.850;8.924;2023-05-21T00:41:30;96434.06;;;15.20;84.66
10135;BME280;5107;48.850;8.924;2023-05-21T00:43:56;96436.91;;;15.12;85.50
10135;BME280;5107;48.850;8.924;2023-05-21T00:46:25;96426.91;;;15.07;85.84
10135;BME280;5107;48.850;8.924;2023-05-21T00:48:52;96423.66;;;15.05;85.96
10135;BME280;5107;48.850;8.924;2023-05-21T00:51:18;96423.25;;;15.08;85.62
10135;BME280;5107;48.850;8.924;2023-05-21T00:53:48;96420.38;;;15.10;85.03
10135;BME280;5107;48.850;8.924;2023-05-21T00:56:13;96419.16;;;14.99;85.69
10135;BME280;5107;48.850;8.924;2023-05-21T00:58:39;96413.84;;;15.26;85.06
10135;BME280;5107;48.850;8.924;2023-05-21T01:01:05;96416.06;;;15.35;84.60
10135;BME280;5107;48.850;8.924;2023-05-21T01:03:31;96411.63;;;15.29;84.45
10135;BME280;5107;48.850;8.924;2023-05-21T01:06:07;96421.41;;;15.22;84.88
10135;BME280;5107;48.850;8.924;2023-05-21T01:08:33;96411.00;;;15.07;85.49
10135;BME280;5107;48.850;8.924;2023-05-21T01:11:00;96411.81;;;15.08;85.87
10135;BME280;5107;48.850;8.924;2023-05-21T01:13:26;96410.81;;;15.09;86.06
10135;BME280;5107;48.850;8.924;2023-05-21T01:15:52;96410.59;;;14.91;86.43
10135;BME280;5107;48.850;8.924;2023-05-21T01:18:18;96403.91;;;14.88;86.76
10135;BME280;5107;48.850;8.924;2023-05-21T01:20:45;96407.56;;;14.80;87.06
10135;BME280;5107;48.850;8.924;2023-05-21T01:23:16;96408.16;;;14.69;87.29
10135;BME280;5107;48.850;8.924;2023-05-21T01:25:41;96407.16;;;14.64;87.82
10135;BME280;5107;48.850;8.924;2023-05-21T01:28:07;96403.50;;;14.71;87.73
10135;BME280;5107;48.850;8.924;2023-05-21T01:30:33;96398.38;;;14.90;86.96
10135;BME280;5107;48.850;8.924;2023-05-21T01:33:08;96398.59;;;14.88;86.53
10135;BME280;5107;48.850;8.924;2023-05-21T01:35:44;96396.16;;;14.80;87.04
10135;BME280;5107;48.850;8.924;2023-05-21T01:40:52;96398.59;;;14.62;87.74
10135;BME280;5107;48.850;8.924;2023-05-21T01:43:19;96402.88;;;14.69;87.90
10135;BME280;5107;48.850;8.924;2023-05-21T01:45:47;96394.72;;;14.64;87.90
10135;BME280;5107;48.850;8.924;2023-05-21T01:48:16;96389.00;;;14.61;88.29
10135;BME280;5107;48.850;8.924;2023-05-21T01:50:42;96400.00;;;14.51;88.50
10135;BME280;5107;48.850;8.924;2023-05-21T01:53:09;96395.53;;;14.65;88.33
10135;BME280;5107;48.850;8.924;2023-05-21T01:55:34;96390.22;;;14.65;88.02
10135;BME280;5107;48.850;8.924;2023-05-21T01:58:03;96396.34;;;14.52;88.22
10135;BME280;5107;48.850;8.924;2023-05-21T02:00:29;96391.84;;;14.46;88.54
10135;BME280;5107;48.850;8.924;2023-05-21T02:02:56;96382.28;;;14.58;88.70
10135;BME280;5107;48.850;8.924;2023-05-21T02:05:22;96384.72;;;14.66;88.37
10135;BME280;5107;48.850;8.924;2023-05-21T02:07:49;96389.63;;;14.69;87.82
10135;BME280;5107;48.850;8.924;2023-05-21T02:10:15;96388.63;;;14.70;87.86
10135;BME280;5107;48.850;8.924;2023-05-21T02:12:40;96388.41;;;14.78;87.09
10135;BME280;5107;48.850;8.924;2023-05-21T02:15:07;96381.69;;;14.96;86.22
10135;BME280;5107;48.850;8.924;2023-05-21T02:17:32;96390.44;;;15.03;85.76
10135;BME280;5107;48.850;8.924;2023-05-21T02:20:02;96391.03;;;14.92;86.16
10135;BME280;5107;48.850;8.924;2023-05-21T02:22:41;96385.56;;;14.80;86.74
10135;BME280;5107;48.850;8.924;2023-05-21T02:25:08;96387.38;;;14.66;87.69
10135;BME280;5107;48.850;8.924;2023-05-21T02:27:34;96382.69;;;14.62;87.87
10135;BME280;5107;48.850;8.924;2023-05-21T02:30:02;96380.84;;;14.75;87.49
10135;BME280;5107;48.850;8.924;2023-05-21T02:32:28;96374.53;;;14.83;87.31
10135;BME280;5107;48.850;8.924;2023-05-21T02:34:56;96366.81;;;14.68;87.66
10135;BME280;5107;48.850;8.924;2023-05-21T02:37:22;96374.75;;;14.55;87.78
10135;BME280;5107;48.850;8.924;2023-05-21T02:39:48;96376.16;;;14.45;88.60
10135;BME280;5107;48.850;8.924;2023-05-21T02:42:13;96374.72;;;14.42;89.01
10135;BME280;5107;48.850;8.924;2023-05-21T02:44:38;96370.88;;;14.51;88.99
10135;BME280;5107;48.850;8.924;2023-05-21T02:47:04;96369.03;;;14.52;88.47
10135;BME280;5107;48.850;8.924;2023-05-21T02:49:30;96367.41;;;14.51;88.99
10135;BME280;5107;48.850;8.924;2023-05-21T02:51:55;96378.78;;;14.38;89.25
10135;BME280;5107;48.850;8.924;2023-05-21T02:54:21;96368.97;;;14.32;90.16
10135;BME280;5107;48.850;8.924;2023-05-21T02:56:46;96377.09;;;14.24;90.59
10135;BME280;5107;48.850;8.924;2023-05-21T02:59:11;96376.16;;;14.45;89.59
10135;BME280;5107;48.850;8.924;2023-05-21T03:01:37;96375.53;;;14.42;89.58
10135;BME280;5107;48.850;8.924;2023-05-21T03:04:02;96368.78;;;14.33;89.76
10135;BME280;5107;48.850;8.924;2023-05-21T03:06:27;96369.78;;;14.26;90.20
10135;BME280;5107;48.850;8.924;2023-05-21T03:08:53;96367.34;;;14.18;90.47
10135;BME280;5107;48.850;8.924;2023-05-21T03:11:20;96366.50;;;14.11;91.29
10135;BME280;5107;48.850;8.924;2023-05-21T03:13:46;96361.41;;;14.09;91.70
10135;BME280;5107;48.850;8.924;2023-05-21T03:16:11;96359.75;;;14.01;91.64
10135;BME280;5107;48.850;8.924;2023-05-21T03:18:38;96359.13;;;13.99;92.09
10135;BME280;5107;48.850;8.924;2023-05-21T03:21:03;96358.19;;;14.27;90.48
10135;BME280;5107;48.850;8.924;2023-05-21T03:23:29;96357.75;;;14.23;90.64
10135;BME280;5107;48.850;8.924;2023-05-21T03:25:56;96363.28;;;14.22;90.53
10135;BME280;5107;48.850;8.924;2023-05-21T03:28:21;96366.94;;;14.27;90.85
10135;BME280;5107;48.850;8.924;2023-05-21T03:30:47;96356.56;;;14.26;90.41
10135;BME280;5107;48.850;8.924;2023-05-21T03:33:14;96364.91;;;14.29;90.17
10135;BME280;5107;48.850;8.924;2023-05-21T03:35:40;96359.84;;;14.41;89.34
10135;BME280;5107;48.850;8.924;2023-05-21T03:38:05;96359.06;;;14.54;88.94
10135;BME280;5107;48.850;8.924;2023-05-21T03:40:31;96358.84;;;14.42;89.48
10135;BME280;5107;48.850;8.924;2023-05-21T03:42:56;96362.13;;;14.44;89.36
10135;BME280;5107;48.850;8.924;2023-05-21T03:45:21;96361.50;;;14.42;89.05
10135;BME280;5107;48.850;8.924;2023-05-21T03:47:47;96353.97;;;14.39;89.36
10135;BME280;5107;48.850;8.924;2023-05-21T03:50:13;96363.69;;;14.32;89.58
10135;BME280;5107;48.850;8.924;2023-05-21T03:52:38;96358.00;;;14.35;89.54
10135;BME280;5107;48.850;8.924;2023-05-21T03:55:04;96360.84;;;14.33;89.54
10135;BME280;5107;48.850;8.924;2023-05-21T03:57:30;96364.56;;;14.39;89.11
10135;BME280;5107;48.850;8.924;2023-05-21T03:59:56;96367.38;;;14.31;89.23
10135;BME280;5107;48.850;8.924;2023-05-21T04:02:24;96369.44;;;14.42;88.48
10135;BME280;5107;48.850;8.924;2023-05-21T04:04:50;96362.47;;;14.34;89.27
10135;BME280;5107;48.850;8.924;2023-05-21T04:07:18;96368.78;;;14.33;89.17
10135;BME280;5107;48.850;8.924;2023-05-21T04:09:43;96377.72;;;14.32;89.57
10135;BME280;5107;48.850;8.924;2023-05-21T04:12:08;96378.94;;;14.23;89.61
10135;BME280;5107;48.850;8.924;2023-05-21T04:14:35;96378.94;;;14.17;90.36
10135;BME280;5107;48.850;8.924;2023-05-21T04:17:01;96374.25;;;14.19;90.36
10135;BME280;5107;48.850;8.924;2023-05-21T04:19:28;96376.09;;;14.25;90.41
10135;BME280;5107;48.850;8.924;2023-05-21T04:21:54;96379.16;;;14.22;90.23
10135;BME280;5107;48.850;8.924;2023-05-21T04:24:20;96388.50;;;14.18;90.86
10135;BME280;5107;48.850;8.924;2023-05-21T04:26:46;96393.22;;;14.29;89.90
10135;BME280;5107;48.850;8.924;2023-05-21T04:29:12;96386.09;;;14.29;89.97
10135;BME280;5107;48.850;8.924;2023-05-21T04:31:37;96388.31;;;14.26;90.22
10135;BME280;5107;48.850;8.924;2023-05-21T04:34:03;96389.34;;;14.31;89.84
10135;BME280;5107;48.850;8.924;2023-05-21T04:36:29;96399.72;;;14.33;90.00
10135;BME280;5107;48.850;8.924;2023-05-21T04:38:54;96394.63;;;14.31;90.29
10135;BME280;5107;48.850;8.924;2023-05-21T04:41:20;96394.66;;;14.38;89.94
10135;BME280;5107;48.850;8.924;2023-05-21T04:43:45;96399.19;;;14.51;89.15
10135;BME280;5107;48.850;8.924;2023-05-21T04:46:11;96401.03;;;14.63;88.41
10135;BME280;5107;48.850;8.924;2023-05-21T04:48:36;96394.31;;;14.74;87.87
10135;BME280;5107;48.850;8.924;2023-05-21T04:51:02;96394.91;;;14.82;87.37
10135;BME280;5107;48.850;8.924;2023-05-21T04:53:30;96409.56;;;14.65;86.90
10135;BME280;5107;48.850;8.924;2023-05-21T04:55:55;96411.84;;;14.62;88.27
10135;BME280;5107;48.850;8.924;2023-05-21T04:58:23;96405.28;;;14.51;88.45
10135;BME280;5107;48.850;8.924;2023-05-21T05:00:48;96405.72;;;14.55;88.70
10135;BME280;5107;48.850;8.924;2023-05-21T05:03:15;96404.88;;;14.41;88.19
10135;BME280;5107;48.850;8.924;2023-05-21T05:05:41;96407.75;;;14.46;88.83
10135;BME280;5107;48.850;8.924;2023-05-21T05:08:06;96407.53;;;14.48;89.24
10135;BME280;5107;48.850;8.924;2023-05-21T05:10:32;96412.66;;;14.56;89.43
10135;BME280;5107;48.850;8.924;2023-05-21T05:12:58;96407.34;;;14.62;89.52
10135;BME280;5107;48.850;8.924;2023-05-21T05:15:23;96407.16;;;14.70;89.56
10135;BME280;5107;48.850;8.924;2023-05-21T05:17:50;96399.63;;;14.80;89.31
10135;BME280;5107;48.850;8.924;2023-05-21T05:20:15;96400.25;;;14.89;89.15
10135;BME280;5107;48.850;8.924;2023-05-21T05:22:41;96407.56;;;15.13;87.65
10135;BME280;5107;48.850;8.924;2023-05-21T05:25:06;96408.53;;;15.26;87.14
10135;BME280;5107;48.850;8.924;2023-05-21T05:27:32;96407.13;;;15.30;86.92
10135;BME280;5107;48.850;8.924;2023-05-21T05:29:58;96392.63;;;15.32;86.86
10135;BME280;5107;48.850;8.924;2023-05-21T05:32:23;96394.66;;;15.43;86.68
10135;BME280;5107;48.850;8.924;2023-05-21T05:34:48;96399.94;;;15.50;85.47
10135;BME280;5107;48.850;8.924;2023-05-21T05:37:13;96401.94;;;15.68;84.31
10135;BME280;5107;48.850;8.924;2023-05-21T05:39:42;96397.13;;;16.03;81.89
10135;BME280;5107;48.850;8.924;2023-05-21T05:42:07;96405.41;;;16.19;81.21
10135;BME280;5107;48.850;8.924;2023-05-21T05:44:32;96401.06;;;16.31;81.23
10135;BME280;5107;48.850;8.924;2023-05-21T05:46:58;96403.06;;;16.36;81.80
10135;BME280;5107;48.850;8.924;2023-05-21T05:49:23;96399.28;;;16.50;81.10
10135;BME280;5107;48.850;8.924;2023-05-21T05:51:51;96405.47;;;16.76;81.42
10135;BME280;5107;48.850;8.924;2023-05-21T05:54:16;96399.25;;;17.13;79.86
10135;BME280;5107;48.850;8.924;2023-05-21T05:56:43;96403.16;;;17.54;77.38
10135;BME280;5107;48.850;8.924;2023-05-21T05:59:11;96411.00;;;17.85;75.71
10135;BME280;5107;48.850;8.924;2023-05-21T06:01:36;96406.63;;;18.09;74.49
10135;BME280;5107;48.850;8.924;2023-05-21T06:04:02;96410.69;;;18.41;71.56
10135;BME280;5107;48.850;8.924;2023-05-21T06:06:27;96410.31;;;18.98;70.30
10135;BME280;5107;48.850;8.924;2023-05-21T06:08:52;96417.41;;;19.50;66.88
10135;BME280;5107;48.850;8.924;2023-05-21T06:11:18;96413.47;;;19.53;68.02
10135;BME280;5107;48.850;8.924;2023-05-21T06:13:44;96413.66;;;19.98;65.57
10135;BME280;5107;48.850;8.924;2023-05-21T06:16:09;96412.38;;;20.29;64.95
10135;BME280;5107;48.850;8.924;2023-05-21T06:18:35;96418.47;;;20.81;64.04
10135;BME280;5107;48.850;8.924;2023-05-21T06:21:01;96415.69;;;20.93;61.79
10135;BME280;5107;48.850;8.924;2023-05-21T06:23:26;96410.28;;;21.04;62.08
10135;BME280;5107;48.850;8.924;2023-05-21T06:25:52;96412.25;;;21.42;60.23
10135;BME280;5107;48.850;8.924;2023-05-21T06:28:17;96412.97;;;21.38;58.70
10135;BME280;5107;48.850;8.924;2023-05-21T06:30:42;96405.66;;;21.67;59.21
10135;BME280;5107;48.850;8.924;2023-05-21T06:33:08;96402.16;;;21.88;58.75
10135;BME280;5107;48.850;8.924;2023-05-21T06:35:33;96405.56;;;22.00;57.94
10135;BME280;5107;48.850;8.924;2023-05-21T06:38:01;96405.34;;;22.28;57.68
10135;BME280;5107;48.850;8.924;2023-05-21T06:40:26;96401.84;;;22.50;55.93
10135;BME280;5107;48.850;8.924;2023-05-21T06:42:52;96407.47;;;22.48;56.06
10135;BME280;5107;48.850;8.924;2023-05-21T06:45:17;96410.97;;;22.27;55.38
10135;BME280;5107;48.850;8.924;2023-05-21T06:47:43;96409.66;;;22.29;55.55
10135;BME280;5107;48.850;8.924;2023-05-21T06:50:08;96416.53;;;22.42;55.04
10135;BME280;5107;48.850;8.924;2023-05-21T06:52:34;96416.66;;;22.30;54.69
10135;BME280;5107;48.850;8.924;2023-05-21T06:54:59;96425.75;;;22.29;56.25
10135;BME280;5107;48.850;8.924;2023-05-21T06:57:24;96417.25;;;22.38;54.79
10135;BME280;5107;48.850;8.924;2023-05-21T06:59:50;96419.19;;;22.69;56.22
10135;BME280;5107;48.850;8.924;2023-05-21T07:02:15;96414.88;;;22.68;55.05
10135;BME280;5107;48.850;8.924;2023-05-21T07:04:41;96422.41;;;22.66;54.66
10135;BME280;5107;48.850;8.924;2023-05-21T07:07:06;96414.69;;;23.01;53.41
10135;BME280;5107;48.850;8.924;2023-05-21T07:09:31;96418.59;;;22.84;54.39
10135;BME280;5107;48.850;8.924;2023-05-21T07:11:57;96414.03;;;22.84;53.79
10135;BME280;5107;48.850;8.924;2023-05-21T07:14:24;96410.09;;;22.97;55.51
10135;BME280;5107;48.850;8.924;2023-05-21T07:16:49;96411.94;;;23.23;53.34
10135;BME280;5107;48.850;8.924;2023-05-21T07:19:14;96411.34;;;22.36;53.72
10135;BME280;5107;48.850;8.924;2023-05-21T07:21:40;96414.47;;;22.27;54.71
10135;BME280;5107;48.850;8.924;2023-05-21T07:24:05;96425.31;;;22.38;54.57
10135;BME280;5107;48.850;8.924;2023-05-21T07:26:30;96422.13;;;22.41;55.73
10135;BME280;5107;48.850;8.924;2023-05-21T07:28:56;96416.94;;;22.56;54.34
10135;BME280;5107;48.850;8.924;2023-05-21T07:31:21;96409.16;;;22.11;55.79
10135;BME280;5107;48.850;8.924;2023-05-21T07:33:46;96414.94;;;21.81;57.36
10135;BME280;5107;48.850;8.924;2023-05-21T07:36:12;96415.63;;;21.93;55.26
10135;BME280;5107;48.850;8.924;2023-05-21T07:38:37;96425.03;;;21.74;57.12
10135;BME280;5107;48.850;8.924;2023-05-21T07:41:04;96416.84;;;21.85;56.52
10135;BME280;5107;48.850;8.924;2023-05-21T07:43:30;96414.81;;;21.92;56.12
10135;BME280;5107;48.850;8.924;2023-05-21T07:45:55;96413.44;;;21.90;55.24
10135;BME280;5107;48.850;8.924;2023-05-21T07:48:21;96416.38;;;21.88;55.55
10135;BME280;5107;48.850;8.924;2023-05-21T07:50:46;96417.13;;;22.27;55.18
10135;BME280;5107;48.850;8.924;2023-05-21T07:53:13;96416.06;;;22.77;54.71
10135;BME280;5107;48.850;8.924;2023-05-21T07:55:39;96418.06;;;23.19;53.77
10135;BME280;5107;48.850;8.924;2023-05-21T07:58:14;96413.72;;;23.13;52.27
10135;BME280;5107;48.850;8.924;2023-05-21T08:00:44;96412.75;;;23.29;53.82
10135;BME280;5107;48.850;8.924;2023-05-21T08:03:13;96417.78;;;23.52;52.58
10135;BME280;5107;48.850;8.924;2023-05-21T08:05:40;96415.16;;;23.57;51.08
10135;BME280;5107;48.850;8.924;2023-05-21T08:08:05;96415.25;;;23.77;52.42
10135;BME280;5107;48.850;8.924;2023-05-21T08:10:31;96417.06;;;23.62;51.61
10135;BME280;5107;48.850;8.924;2023-05-21T08:12:56;96416.88;;;23.73;51.61
10135;BME280;5107;48.850;8.924;2023-05-21T08:15:22;96410.75;;;23.83;54.58
10135;BME280;5107;48.850;8.924;2023-05-21T08:17:47;96419.75;;;24.09;52.30
10135;BME280;5107;48.850;8.924;2023-05-21T08:20:13;96416.50;;;24.12;50.37
10135;BME280;5107;48.850;8.924;2023-05-21T08:22:39;96410.28;;;24.01;52.33
10135;BME280;5107;48.850;8.924;2023-05-21T08:25:06;96402.41;;;23.85;50.93
10135;BME280;5107;48.850;8.924;2023-05-21T08:27:31;96414.66;;;23.65;51.23
10135;BME280;5107;48.850;8.924;2023-05-21T08:29:57;96408.47;;;23.60;51.68
10135;BME280;5107;48.850;8.924;2023-05-21T08:32:22;96413.44;;;23.83;52.91
10135;BME280;5107;48.850;8.924;2023-05-21T08:34:47;96410.38;;;23.69;51.32
10135;BME280;5107;48.850;8.924;2023-05-21T08:37:13;96417.69;;;23.79;52.99
10135;BME280;5107;48.850;8.924;2023-05-21T08:39:38;96418.00;;;24.35;50.74
10135;BME280;5107;48.850;8.924;2023-05-21T08:42:10;96418.31;;;24.58;49.89
10135;BME280;5107;48.850;8.924;2023-05-21T08:44:41;96424.88;;;24.15;50.73
10135;BME280;5107;48.850;8.924;2023-05-21T08:47:13;96419.13;;;23.92;49.80
10135;BME280;5107;48.850;8.924;2023-05-21T08:49:40;96415.78;;;23.74;50.65
10135;BME280;5107;48.850;8.924;2023-05-21T08:52:07;96415.84;;;23.85;50.47
10135;BME280;5107;48.850;8.924;2023-05-21T08:54:34;96421.06;;;24.06;49.10
10135;BME280;5107;48.850;8.924;2023-05-21T08:57:01;96419.84;;;24.29;47.95
10135;BME280;5107;48.850;8.924;2023-05-21T08:59:27;96418.56;;;24.57;48.88
10135;BME280;5107;48.850;8.924;2023-05-21T09:01:53;96416.16;;;24.61;48.62
10135;BME280;5107;48.850;8.924;2023-05-21T09:04:19;96413.19;;;24.62;50.27
10135;BME280;5107;48.850;8.924;2023-05-21T09:06:45;96420.50;;;24.82;47.99
10135;BME280;5107;48.850;8.924;2023-05-21T09:09:27;96423.75;;;24.84;47.28
10135;BME280;5107;48.850;8.924;2023-05-21T09:11:56;96424.34;;;25.01;46.34
10135;BME280;5107;48.850;8.924;2023-05-21T09:14:22;96419.75;;;25.07;44.69
10135;BME280;5107;48.850;8.924;2023-05-21T09:16:47;96424.88;;;25.13;45.52
10135;BME280;5107;48.850;8.924;2023-05-21T09:19:12;96416.81;;;25.18;45.54
10135;BME280;5107;48.850;8.924;2023-05-21T09:21:38;96415.16;;;25.48;46.28
10135;BME280;5107;48.850;8.924;2023-05-21T09:24:04;96415.16;;;25.63;46.16
10135;BME280;5107;48.850;8.924;2023-05-21T09:26:30;96421.06;;;25.55;45.46
10135;BME280;5107;48.850;8.924;2023-05-21T09:28:57;96411.94;;;25.41;43.78
10135;BME280;5107;48.850;8.924;2023-05-21T09:31:23;96423.25;;;25.38;44.52
10135;BME280;5107;48.850;8.924;2023-05-21T09:33:50;96417.81;;;24.67;46.62
10135;BME280;5107;48.850;8.924;2023-05-21T09:36:19;96421.53;;;24.50;48.72
10135;BME280;5107;48.850;8.924;2023-05-21T09:38:45;96417.31;;;25.46;45.74
10135;BME280;5107;48.850;8.924;2023-05-21T09:41:11;96417.31;;;25.66;47.39
10135;BME280;5107;48.850;8.924;2023-05-21T09:43:36;96416.44;;;26.01;45.08
10135;BME280;5107;48.850;8.924;2023-05-21T09:46:02;96424.75;;;26.04;44.72
10135;BME280;5107;48.850;8.924;2023-05-21T09:48:41;96421.91;;;26.50;44.34
10135;BME280;5107;48.850;8.924;2023-05-21T09:51:13;96423.06;;;26.34;43.74
10135;BME280;5107;48.850;8.924;2023-05-21T09:53:57;96420.06;;;26.40;44.88
10135;BME280;5107;48.850;8.924;2023-05-21T09:56:23;96419.19;;;25.81;44.44
10135;BME280;5107;48.850;8.924;2023-05-21T09:58:56;96421.38;;;25.08;46.71
10135;BME280;5107;48.850;8.924;2023-05-21T10:01:24;96429.59;;;24.61;47.48
10135;BME280;5107;48.850;8.924;2023-05-21T10:03:53;96422.69;;;24.07;49.03
10135;BME280;5107;48.850;8.924;2023-05-21T10:06:20;96429.13;;;24.01;48.98
10135;BME280;5107;48.850;8.924;2023-05-21T10:08:51;96428.47;;;24.31;48.91
10135;BME280;5107;48.850;8.924;2023-05-21T10:11:18;96424.34;;;24.18;47.97
10135;BME280;5107;48.850;8.924;2023-05-21T10:13:47;96426.09;;;24.50;47.25
10135;BME280;5107;48.850;8.924;2023-05-21T10:16:16;96426.94;;;24.71;48.10
10135;BME280;5107;48.850;8.924;2023-05-21T10:18:42;96424.31;;;24.91;47.80
10135;BME280;5107;48.850;8.924;2023-05-21T10:21:09;96425.69;;;25.24;45.66
10135;BME280;5107;48.850;8.924;2023-05-21T10:23:35;96423.19;;;24.72;46.20
10135;BME280;5107;48.850;8.924;2023-05-21T10:26:02;96422.91;;;24.68;47.12
10135;BME280;5107;48.850;8.924;2023-05-21T10:28:29;96413.16;;;24.47;47.88
10135;BME280;5107;48.850;8.924;2023-05-21T10:30:55;96428.31;;;24.01;48.44
10135;BME280;5107;48.850;8.924;2023-05-21T10:33:22;96414.16;;;23.68;48.51
10135;BME280;5107;48.850;8.924;2023-05-21T10:35:50;96417.59;;;23.59;48.92
10135;BME280;5107;48.850;8.924;2023-05-21T10:38:17;96426.72;;;23.63;49.43
10135;BME280;5107;48.850;8.924;2023-05-21T10:40:43;96418.53;;;23.85;48.97
10135;BME280;5107;48.850;8.924;2023-05-21T10:48:59;96416.13;;;23.46;49.34
10135;BME280;5107;48.850;8.924;2023-05-21T11:00:05;96417.31;;;25.05;45.55
10135;BME280;5107;48.850;8.924;2023-05-21T11:02:33;96423.22;;;25.53;46.21
10135;BME280;5107;48.850;8.924;2023-05-21T11:04:59;96415.19;;;25.22;43.93
10135;BME280;5107;48.850;8.924;2023-05-21T11:07:51;96415.16;;;25.63;46.86
10135;BME280;5107;48.850;8.924;2023-05-21T11:10:36;96414.59;;;25.81;43.11
10135;BME280;5107;48.850;8.924;2023-05-21T11:13:15;96418.94;;;25.62;43.69
10135;BME280;5107;48.850;8.924;2023-05-21T11:18:22;96411.66;;;25.42;45.77
10135;BME280;5107;48.850;8.924;2023-05-21T11:20:50;96419.22;;;25.65;43.73
10135;BME280;5107;48.850;8.924;2023-05-21T11:23:16;96412.72;;;25.61;43.13
10135;BME280;5107;48.850;8.924;2023-05-21T11:25:41;96415.44;;;25.66;42.76
10135;BME280;5107;48.850;8.924;2023-05-21T11:28:06;96415.97;;;25.28;42.89
10135;BME280;5107;48.850;8.924;2023-05-21T11:30:34;96419.50;;;25.18;43.58
10135;BME280;5107;48.850;8.924;2023-05-21T11:35:37;96411.16;;;25.60;44.65
10135;BME280;5107;48.850;8.924;2023-05-21T11:38:03;96406.94;;;26.19;45.18
10135;BME280;5107;48.850;8.924;2023-05-21T11:40:28;96408.31;;;26.65;45.59
10135;BME280;5107;48.850;8.924;2023-05-21T11:42:55;96411.38;;;26.98;44.32
10135;BME280;5107;48.850;8.924;2023-05-21T11:45:31;96411.34;;;27.03;42.90
10135;BME280;5107;48.850;8.924;2023-05-21T11:47:57;96412.50;;;26.92;43.74
10135;BME280;5107;48.850;8.924;2023-05-21T11:50:22;96408.31;;;26.65;42.22
10135;BME280;5107;48.850;8.924;2023-05-21T11:52:49;96407.25;;;26.66;42.09
10135;BME280;5107;48.850;8.924;2023-05-21T11:55:20;96406.25;;;26.47;43.40
10135;BME280;5107;48.850;8.924;2023-05-21T11:57:46;96412.03;;;26.20;43.59
10135;BME280;5107;48.850;8.924;2023-05-21T12:00:14;96407.59;;;25.70;42.89
10135;BME280;5107;48.850;8.924;2023-05-21T12:02:51;96418.63;;;25.94;44.73
10135;BME280;5107;48.850;8.924;2023-05-21T12:05:17;96418.63;;;26.53;45.33
10135;BME280;5107;48.850;8.924;2023-05-21T12:07:45;96413.09;;;26.78;41.79
10135;BME280;5107;48.850;8.924;2023-05-21T12:10:12;96421.06;;;26.55;42.18
10135;BME280;5107;48.850;8.924;2023-05-21T12:12:38;96420.38;;;26.34;41.83
10135;BME280;5107;48.850;8.924;2023-05-21T12:15:03;96421.72;;;26.21;43.06
10135;BME280;5107;48.850;8.924;2023-05-21T12:17:29;96412.88;;;26.16;42.59
10135;BME280;5107;48.850;8.924;2023-05-21T12:19:56;96410.97;;;26.16;45.41
10135;BME280;5107;48.850;8.924;2023-05-21T12:22:22;96409.06;;;26.22;43.30
10135;BME280;5107;48.850;8.924;2023-05-21T12:24:49;96407.44;;;26.21;43.15
10135;BME280;5107;48.850;8.924;2023-05-21T12:27:15;96404.72;;;26.36;43.20
10135;BME280;5107;48.850;8.924;2023-05-21T12:29:45;96408.50;;;26.35;43.37
10135;BME280;5107;48.850;8.924;2023-05-21T12:32:12;96407.25;;;26.02;43.59
10135;BME280;5107;48.850;8.924;2023-05-21T12:34:46;96402.19;;;25.70;44.07
10135;BME280;5107;48.850;8.924;2023-05-21T12:37:15;96414.06;;;25.74;43.57
10135;BME280;5107;48.850;8.924;2023-05-21T12:39:45;96411.16;;;25.60;44.30
10135;BME280;5107;48.850;8.924;2023-05-21T12:42:11;96401.66;;;25.73;44.24
10135;BME280;5107;48.850;8.924;2023-05-21T12:44:43;96404.84;;;25.90;42.49
10135;BME280;5107;48.850;8.924;2023-05-21T12:47:10;96410.19;;;26.05;42.22
10135;BME280;5107;48.850;8.924;2023-05-21T12:49:40;96401.19;;;26.40;43.87
10135;BME280;5107;48.850;8.924;2023-05-21T12:52:14;96401.41;;;26.49;41.05
10135;BME280;5107;48.850;8.924;2023-05-21T12:54:44;96409.50;;;26.49;40.03
10135;BME280;5107;48.850;8.924;2023-05-21T12:57:14;96407.16;;;26.32;39.41
10135;BME280;5107;48.850;8.924;2023-05-21T12:59:51;96406.69;;;26.05;40.67
10135;BME280;5107;48.850;8.924;2023-05-21T13:02:21;96404.31;;;25.88;40.00
10135;BME280;5107;48.850;8.924;2023-05-21T13:04:47;96411.41;;;25.28;40.90
10135;BME280;5107;48.850;8.924;2023-05-21T13:07:17;96413.84;;;25.15;42.31
10135;BME280;5107;48.850;8.924;2023-05-21T13:09:42;96410.03;;;24.90;41.22
10135;BME280;5107;48.850;8.924;2023-05-21T13:12:07;96408.72;;;24.98;42.09
10135;BME280;5107;48.850;8.924;2023-05-21T13:14:33;96406.28;;;25.32;41.64
10135;BME280;5107;48.850;8.924;2023-05-21T13:16:58;96406.81;;;25.49;39.72
10135;BME280;5107;48.850;8.924;2023-05-21T13:19:24;96405.47;;;25.42;40.79
10135;BME280;5107;48.850;8.924;2023-05-21T13:21:49;96404.91;;;25.45;41.71
10135;BME280;5107;48.850;8.924;2023-05-21T13:24:15;96405.19;;;25.38;42.43
10135;BME280;5107;48.850;8.924;2023-05-21T13:26:40;96409.81;;;25.17;43.62
10135;BME280;5107;48.850;8.924;2023-05-21T13:29:05;96406.56;;;25.25;44.25